createdAt,value
2022-11-13T00:00:05.702Z,9.55
2022-11-13T00:02:34.281Z,9.90
2022-11-13T00:05:00.717Z,9.07
2022-11-13T00:07:27.962Z,9.60
2022-11-13T00:09:55.614Z,9.43
2022-11-13T00:12:22.089Z,9.10
2022-11-13T00:14:48.436Z,9.27
2022-11-13T00:17:15.781Z,8.80
2022-11-13T00:19:42.088Z,9.63
2022-11-13T00:22:08.402Z,8.80
2022-11-13T00:24:34.925Z,9.90
2022-11-13T00:27:01.294Z,9.68
2022-11-13T00:29:27.845Z,9.88
2022-11-13T00:31:54.177Z,9.13
2022-11-13T00:34:41.481Z,9.60
2022-11-13T00:37:06.897Z,10.93
2022-11-13T00:39:33.398Z,10.15
2022-11-13T00:41:59.813Z,9.98
2022-11-13T00:44:26.330Z,9.50
2022-11-13T00:46:52.674Z,9.75
2022-11-13T00:49:18.972Z,11.00
2022-11-13T00:51:45.518Z,10.10
2022-11-13T00:54:11.881Z,10.25
2022-11-13T00:56:38.396Z,10.85
2022-11-13T00:59:04.820Z,10.52
2022-11-13T01:01:31.366Z,10.57
2022-11-13T01:03:57.956Z,9.65
2022-11-13T01:06:26.595Z,10.63
2022-11-13T01:08:58.297Z,10.93
2022-11-13T01:11:28.025Z,10.27
2022-11-13T01:13:56.242Z,11.40
2022-11-13T01:16:25.230Z,10.75
2022-11-13T01:18:55.328Z,10.23
2022-11-13T01:21:24.898Z,10.95
2022-11-13T01:23:51.367Z,9.50
2022-11-13T01:26:24.781Z,9.68
2022-11-13T01:28:51.328Z,10.15
2022-11-13T01:31:21.213Z,10.32
2022-11-13T01:33:48.740Z,11.05
2022-11-13T01:36:24.534Z,11.00
2022-11-13T01:38:51.740Z,10.77
2022-11-13T01:41:23.998Z,10.00
2022-11-13T01:43:52.002Z,10.25
2022-11-13T01:46:28.751Z,10.75
2022-11-13T01:49:12.311Z,11.80
2022-11-13T01:51:47.754Z,10.93
2022-11-13T01:54:20.863Z,9.98
2022-11-13T01:56:48.228Z,11.15
2022-11-13T01:59:20.202Z,11.10
2022-11-13T02:01:46.692Z,10.95
2022-11-13T02:04:13.232Z,10.10
2022-11-13T02:06:44.703Z,11.52
2022-11-13T02:09:13.908Z,11.05
2022-11-13T02:11:41.310Z,11.43
2022-11-13T02:14:09.457Z,11.65
2022-11-13T02:16:37.778Z,11.70
2022-11-13T02:19:11.203Z,11.77
2022-11-13T02:21:52.848Z,11.80
2022-11-13T02:24:29.252Z,11.93
2022-11-13T02:27:01.254Z,10.95
2022-11-13T02:29:27.753Z,11.90
2022-11-13T02:31:54.120Z,10.57
2022-11-13T02:34:20.524Z,11.38
2022-11-13T02:36:47.213Z,10.73
2022-11-13T02:39:14.351Z,10.55
2022-11-13T02:41:41.097Z,10.65
2022-11-13T02:44:08.757Z,11.10
2022-11-13T02:46:36.297Z,11.80
2022-11-13T02:49:02.917Z,11.32
2022-11-13T02:51:29.703Z,10.98
2022-11-13T02:53:56.325Z,10.95
2022-11-13T02:56:22.842Z,11.80
2022-11-13T02:58:49.184Z,11.32
2022-11-13T03:01:15.592Z,11.85
2022-11-13T03:03:57.171Z,11.25
2022-11-13T03:06:24.249Z,11.68
2022-11-13T03:08:50.548Z,10.30
2022-11-13T03:11:17.205Z,12.20
2022-11-13T03:13:43.562Z,10.77
2022-11-13T03:16:13.190Z,11.43
2022-11-13T03:18:40.223Z,12.20
2022-11-13T03:21:09.370Z,11.25
2022-11-13T03:23:35.947Z,11.10
2022-11-13T03:26:12.367Z,11.27
2022-11-13T03:28:38.713Z,10.55
2022-11-13T03:31:05.744Z,11.15
2022-11-13T03:33:32.528Z,11.20
2022-11-13T03:35:59.008Z,11.25
2022-11-13T03:38:26.085Z,11.07
2022-11-13T03:40:53.009Z,11.18
2022-11-13T03:43:19.514Z,11.30
2022-11-13T03:45:47.034Z,11.50
2022-11-13T03:48:14.993Z,10.90
2022-11-13T03:50:47.139Z,11.18
2022-11-13T03:53:14.719Z,10.32
2022-11-13T03:55:43.001Z,10.53
2022-11-13T03:58:11.428Z,10.80
2022-11-13T04:00:41.617Z,11.20
2022-11-13T04:03:08.292Z,10.15
2022-11-13T04:05:34.787Z,11.80
2022-11-13T04:08:01.135Z,11.35
2022-11-13T04:10:27.883Z,11.13
2022-11-13T04:12:54.209Z,10.98
2022-11-13T04:15:20.762Z,10.93
2022-11-13T04:17:48.077Z,10.90
2022-11-13T04:20:14.725Z,10.95
2022-11-13T04:22:41.253Z,11.20
2022-11-13T04:25:09.361Z,11.70
2022-11-13T04:27:35.812Z,12.07
2022-11-13T04:30:03.391Z,12.27
2022-11-13T04:32:29.944Z,12.27
2022-11-13T04:34:56.302Z,12.10
2022-11-13T04:37:22.827Z,11.93
2022-11-13T04:39:49.321Z,11.90
2022-11-13T04:42:34.987Z,11.70
2022-11-13T04:45:01.360Z,11.90
2022-11-13T04:47:27.693Z,11.32
2022-11-13T04:49:53.985Z,12.20
2022-11-13T04:52:21.380Z,11.13
2022-11-13T04:54:47.699Z,12.20
2022-11-13T04:57:14.091Z,11.65
2022-11-13T04:59:40.442Z,12.10
2022-11-13T05:02:07.132Z,11.95
2022-11-13T05:04:33.637Z,12.00
2022-11-13T05:07:00.227Z,11.18
2022-11-13T05:09:26.647Z,11.75
2022-11-13T05:11:52.955Z,11.50
2022-11-13T05:14:19.306Z,10.95
2022-11-13T05:16:45.772Z,12.15
2022-11-13T05:19:12.089Z,12.13
2022-11-13T05:21:39.851Z,12.18
2022-11-13T05:24:06.824Z,12.70
2022-11-13T05:26:33.247Z,12.18
2022-11-13T05:29:00.533Z,11.68
2022-11-13T05:31:27.301Z,12.10
2022-11-13T05:33:55.018Z,13.15
2022-11-13T05:36:22.255Z,12.20
2022-11-13T05:38:49.045Z,12.30
2022-11-13T05:41:17.886Z,11.85
2022-11-13T05:43:44.685Z,11.98
2022-11-13T05:46:17.693Z,11.88
2022-11-13T05:48:44.885Z,13.55
2022-11-13T05:51:18.500Z,12.80
2022-11-13T05:53:45.241Z,11.95
2022-11-13T05:56:20.734Z,12.25
2022-11-13T05:58:47.973Z,12.70
2022-11-13T06:01:34.637Z,12.63
2022-11-13T06:04:01.491Z,11.35
2022-11-13T06:06:29.607Z,12.05
2022-11-13T06:08:57.287Z,12.55
2022-11-13T06:11:25.880Z,12.67
2022-11-13T06:16:25.833Z,11.40
2022-11-13T06:18:57.034Z,12.63
2022-11-13T06:21:25.849Z,12.05
2022-11-13T06:23:52.900Z,11.55
2022-11-13T06:26:22.639Z,11.30
2022-11-13T06:28:49.317Z,11.18
2022-11-13T06:31:20.768Z,11.98
2022-11-13T06:33:47.679Z,11.13
2022-11-13T06:36:35.636Z,10.77
2022-11-13T06:39:05.057Z,10.80
2022-11-13T06:41:32.531Z,11.23
2022-11-13T06:44:02.941Z,11.30
2022-11-13T06:46:30.000Z,11.95
2022-11-13T06:48:56.929Z,10.48
2022-11-13T06:51:27.127Z,11.07
2022-11-13T06:53:53.584Z,11.00
2022-11-13T06:56:21.139Z,11.05
2022-11-13T06:58:47.719Z,10.90
2022-11-13T07:01:19.272Z,11.73
2022-11-13T07:03:45.928Z,11.32
2022-11-13T07:06:15.152Z,10.90
2022-11-13T07:08:42.483Z,11.55
2022-11-13T07:11:15.699Z,10.80
2022-11-13T07:13:42.862Z,10.68
2022-11-13T07:16:17.031Z,11.45
2022-11-13T07:18:51.177Z,10.10
2022-11-13T07:21:17.554Z,12.18
2022-11-13T07:23:48.112Z,12.88
2022-11-13T07:26:14.595Z,11.70
2022-11-13T07:28:41.129Z,11.68
2022-11-13T07:31:07.993Z,11.55
2022-11-13T07:33:34.454Z,11.75
2022-11-13T07:36:01.306Z,11.43
2022-11-13T07:38:28.063Z,9.50
2022-11-13T07:40:54.935Z,10.25
2022-11-13T07:43:21.330Z,10.32
2022-11-13T07:45:47.715Z,10.25
2022-11-13T07:48:14.139Z,12.02
2022-11-13T07:50:40.709Z,11.60
2022-11-13T07:53:08.723Z,10.52
2022-11-13T07:55:35.945Z,10.60
2022-11-13T07:58:03.353Z,10.85
2022-11-13T08:00:31.319Z,10.07
2022-11-13T08:02:57.908Z,10.73
2022-11-13T08:05:25.577Z,10.73
2022-11-13T08:07:52.912Z,10.77
2022-11-13T08:10:20.705Z,10.63
2022-11-13T08:12:47.235Z,11.57
2022-11-13T08:15:14.396Z,10.38
2022-11-13T08:17:41.299Z,12.30
2022-11-13T08:20:08.977Z,11.93
2022-11-13T08:22:35.405Z,11.57
2022-11-13T08:25:01.764Z,11.70
2022-11-13T08:27:28.815Z,11.25
2022-11-13T08:29:55.254Z,12.25
2022-11-13T08:32:22.885Z,11.63
2022-11-13T08:34:49.348Z,10.47
2022-11-13T08:37:16.248Z,11.68
2022-11-13T08:39:42.625Z,10.70
2022-11-13T08:42:09.181Z,9.77
2022-11-13T08:44:35.530Z,10.38
2022-11-13T08:47:02.025Z,10.45
2022-11-13T08:49:28.403Z,10.50
2022-11-13T08:51:54.766Z,11.07
2022-11-13T08:54:21.134Z,11.05
2022-11-13T08:56:52.963Z,10.52
2022-11-13T08:59:23.598Z,10.27
2022-11-13T09:01:50.625Z,10.98
2022-11-13T09:04:17.010Z,9.85
2022-11-13T09:06:43.436Z,8.80
2022-11-13T09:09:10.132Z,8.48
2022-11-13T09:11:36.577Z,8.48
2022-11-13T09:14:02.897Z,7.75
2022-11-13T09:16:29.363Z,7.30
2022-11-13T09:18:55.693Z,7.70
2022-11-13T09:21:22.259Z,7.05
2022-11-13T09:23:48.817Z,6.45
2022-11-13T09:26:15.330Z,7.40
2022-11-13T09:28:41.756Z,8.23
2022-11-13T09:31:08.377Z,7.63
2022-11-13T09:33:35.515Z,7.40
2022-11-13T09:36:02.776Z,7.00
2022-11-13T09:38:32.474Z,6.75
2022-11-13T09:41:05.375Z,7.15
2022-11-13T09:43:40.839Z,7.78
2022-11-13T09:46:30.400Z,7.90
2022-11-13T09:49:02.573Z,7.95
2022-11-13T09:51:33.584Z,8.63
2022-11-13T09:54:04.962Z,7.03
2022-11-13T09:56:35.799Z,6.40
2022-11-13T09:59:29.019Z,7.28
2022-11-13T10:02:20.972Z,7.13
2022-11-13T10:05:19.794Z,7.38
2022-11-13T10:08:05.917Z,6.70
2022-11-13T10:10:44.207Z,7.00
2022-11-13T10:13:14.592Z,6.70
2022-11-13T10:15:44.958Z,6.63
2022-11-13T10:18:27.030Z,6.15
2022-11-13T10:20:57.970Z,6.50
2022-11-13T10:23:35.103Z,5.95
2022-11-13T10:26:29.556Z,5.65
2022-11-13T10:29:11.733Z,5.38
2022-11-13T10:31:50.249Z,5.00
2022-11-13T10:37:05.949Z,5.20
2022-11-13T10:39:41.795Z,4.40
2022-11-13T10:42:31.608Z,4.57
2022-11-13T10:45:00.564Z,4.28
2022-11-13T10:48:01.975Z,4.85
2022-11-13T10:50:31.133Z,4.55
2022-11-13T10:52:57.954Z,4.03
2022-11-13T10:55:41.563Z,4.50
2022-11-13T10:58:13.606Z,4.18
2022-11-13T11:00:44.502Z,4.18
2022-11-13T11:03:17.927Z,4.50
2022-11-13T11:05:59.595Z,4.53
2022-11-13T11:08:33.754Z,4.28
2022-11-13T11:11:21.237Z,3.55
2022-11-13T11:13:51.244Z,3.80
2022-11-13T11:16:23.698Z,3.45
2022-11-13T11:18:57.953Z,3.92
2022-11-13T11:21:34.994Z,3.60
2022-11-13T11:24:34.749Z,3.55
2022-11-13T11:27:23.110Z,3.63
2022-11-13T11:32:33.577Z,3.15
2022-11-13T11:35:14.616Z,3.72
2022-11-13T11:38:07.549Z,3.47
2022-11-13T11:40:42.405Z,23.63
2022-11-13T11:43:34.526Z,8.02
2022-11-13T11:46:05.167Z,4.70
2022-11-13T11:48:33.142Z,4.35
2022-11-13T11:51:05.526Z,5.85
2022-11-13T11:53:45.800Z,4.25
2022-11-13T11:56:33.550Z,3.97
2022-11-13T11:59:22.497Z,3.70
2022-11-13T12:02:28.914Z,3.40
2022-11-13T12:05:02.768Z,3.70
2022-11-13T12:07:29.548Z,3.60
2022-11-13T12:10:04.253Z,3.42
2022-11-13T12:12:49.033Z,2.90
2022-11-13T12:15:23.557Z,2.95
2022-11-13T12:18:22.355Z,2.88
2022-11-13T12:21:07.901Z,2.25
2022-11-13T12:23:35.747Z,2.40
2022-11-13T12:26:23.543Z,2.40
2022-11-13T12:29:10.999Z,2.13
2022-11-13T12:31:59.261Z,2.70
2022-11-13T12:34:35.421Z,2.47
2022-11-13T12:37:10.689Z,5.22
2022-11-13T12:39:43.210Z,3.78
2022-11-13T12:42:18.006Z,2.60
2022-11-13T12:45:00.503Z,2.75
2022-11-13T12:47:27.369Z,2.95
2022-11-13T12:50:05.565Z,2.55
2022-11-13T12:52:31.916Z,2.40
2022-11-13T12:55:07.385Z,2.83
2022-11-13T12:57:33.853Z,2.45
2022-11-13T13:00:28.473Z,2.67
2022-11-13T13:03:11.322Z,2.17
2022-11-13T13:06:16.607Z,2.85
2022-11-13T13:09:20.729Z,2.25
2022-11-13T13:12:13.596Z,2.28
2022-11-13T13:15:04.125Z,2.45
2022-11-13T13:17:30.573Z,2.45
2022-11-13T13:20:02.288Z,2.70
2022-11-13T13:22:33.121Z,2.75
2022-11-13T13:25:04.174Z,2.70
2022-11-13T13:27:37.491Z,2.90
2022-11-13T13:30:26.205Z,2.90
2022-11-13T13:33:20.728Z,2.90
2022-11-13T13:35:57.646Z,3.13
2022-11-13T13:38:26.730Z,2.65
2022-11-13T13:41:17.147Z,2.92
2022-11-13T13:44:14.554Z,2.83
2022-11-13T13:46:41.786Z,2.90
2022-11-13T13:49:14.498Z,2.72
2022-11-13T13:51:44.183Z,2.90
2022-11-13T13:54:22.348Z,2.53
2022-11-13T13:56:49.346Z,3.20
2022-11-13T13:59:22.203Z,3.05
2022-11-13T14:01:58.317Z,3.13
2022-11-13T14:04:27.884Z,3.20
2022-11-13T14:06:56.968Z,3.10
2022-11-13T14:09:28.380Z,3.38
2022-11-13T14:12:09.607Z,2.78
2022-11-13T14:14:39.516Z,2.90
2022-11-13T14:17:07.070Z,2.90
2022-11-13T14:19:33.815Z,3.13
2022-11-13T14:22:02.781Z,3.40
2022-11-13T14:24:34.364Z,3.50
2022-11-13T14:27:07.369Z,3.22
2022-11-13T14:30:02.238Z,3.78
2022-11-13T14:32:31.994Z,3.28
2022-11-13T14:35:01.733Z,3.63
2022-11-13T14:37:44.690Z,3.65
2022-11-13T14:40:23.232Z,3.78
2022-11-13T14:45:33.002Z,3.50
2022-11-13T14:48:01.998Z,3.88
2022-11-13T14:50:35.480Z,4.85
2022-11-13T14:53:07.997Z,4.03
2022-11-13T14:55:39.131Z,5.13
2022-11-13T14:58:05.983Z,7.75
2022-11-13T15:00:35.238Z,5.95
2022-11-13T15:03:03.764Z,4.80
2022-11-13T15:07:57.429Z,4.68
2022-11-13T15:10:27.681Z,4.60
2022-11-13T15:12:54.433Z,4.00
2022-11-13T15:15:27.007Z,4.10
2022-11-13T15:17:54.592Z,3.80
2022-11-13T15:20:28.709Z,3.60
2022-11-13T15:22:57.103Z,3.60
2022-11-13T15:25:25.162Z,3.13
2022-11-13T15:27:53.295Z,3.70
2022-11-13T15:30:20.190Z,5.25
2022-11-13T15:32:48.005Z,5.68
2022-11-13T15:35:18.002Z,3.90
2022-11-13T15:37:45.240Z,3.45
2022-11-13T15:40:13.079Z,3.70
2022-11-13T15:42:40.897Z,5.60
2022-11-13T15:45:12.852Z,4.82
2022-11-13T15:47:39.566Z,5.93
2022-11-13T15:50:16.574Z,4.82
2022-11-13T15:52:49.025Z,4.38
2022-11-13T15:55:30.463Z,4.40
2022-11-13T15:57:58.443Z,5.13
2022-11-13T16:00:27.314Z,5.47
2022-11-13T16:02:56.484Z,6.18
2022-11-13T16:05:29.178Z,5.85
2022-11-13T16:07:56.650Z,5.70
2022-11-13T16:10:25.086Z,4.78
2022-11-13T16:12:52.824Z,4.68
2022-11-13T16:15:19.925Z,7.75
2022-11-13T16:17:49.345Z,5.65
2022-11-13T16:20:18.819Z,5.00
2022-11-13T16:22:45.762Z,4.22
2022-11-13T16:25:18.707Z,4.22
2022-11-13T16:27:45.968Z,4.20
2022-11-13T16:30:16.990Z,5.53
2022-11-13T16:32:43.497Z,4.57
2022-11-13T16:35:19.924Z,5.05
2022-11-13T16:37:46.428Z,3.50
2022-11-13T16:40:26.561Z,3.58
2022-11-13T16:42:53.617Z,2.97
2022-11-13T16:45:21.023Z,2.97
2022-11-13T16:47:47.797Z,2.58
2022-11-13T16:50:26.825Z,2.40
2022-11-13T16:52:53.314Z,2.38
2022-11-13T16:55:19.670Z,2.40
2022-11-13T16:57:46.128Z,2.33
2022-11-13T17:00:16.167Z,3.03
2022-11-13T17:02:43.122Z,2.22
2022-11-13T17:05:14.198Z,2.20
2022-11-13T17:07:41.315Z,2.30
2022-11-13T17:10:32.403Z,1.90
2022-11-13T17:13:00.059Z,2.20
2022-11-13T17:15:26.454Z,2.22
2022-11-13T17:17:57.048Z,2.28
2022-11-13T17:20:26.106Z,2.58
2022-11-13T17:22:52.468Z,2.42
2022-11-13T17:25:20.392Z,2.40
2022-11-13T17:27:47.138Z,2.47
2022-11-13T17:30:13.984Z,2.25
2022-11-13T17:32:40.508Z,3.17
2022-11-13T17:35:07.363Z,2.40
2022-11-13T17:37:33.911Z,2.60
2022-11-13T17:40:00.334Z,2.45
2022-11-13T17:42:28.821Z,2.40
2022-11-13T17:47:22.009Z,2.65
2022-11-13T17:49:48.374Z,2.60
2022-11-13T17:52:14.833Z,2.30
2022-11-13T17:54:41.343Z,2.30
2022-11-13T17:57:10.449Z,3.40
2022-11-13T17:59:36.903Z,3.05
2022-11-13T18:02:03.393Z,2.83
2022-11-13T18:04:29.762Z,2.88
2022-11-13T18:06:56.692Z,3.08
2022-11-13T18:09:23.059Z,2.80
2022-11-13T18:11:49.370Z,2.53
2022-11-13T18:14:16.119Z,2.50
2022-11-13T18:16:42.447Z,2.70
2022-11-13T18:19:09.514Z,2.63
2022-11-13T18:21:37.416Z,4.13
2022-11-13T18:24:07.424Z,27.67
2022-11-13T18:26:36.660Z,12.55
2022-11-13T18:29:03.856Z,10.98
2022-11-13T18:31:30.567Z,12.13
2022-11-13T18:34:02.594Z,6.47
2022-11-13T18:36:29.166Z,5.03
2022-11-13T18:38:58.307Z,4.05
2022-11-13T18:41:25.692Z,3.15
2022-11-13T18:43:52.275Z,3.08
2022-11-13T18:46:21.018Z,2.58
2022-11-13T18:48:48.650Z,2.95
2022-11-13T18:51:21.108Z,3.17
2022-11-13T18:53:49.287Z,2.75
2022-11-13T18:56:24.850Z,2.92
2022-11-13T18:58:55.501Z,3.03
2022-11-13T19:01:27.967Z,3.40
2022-11-13T19:06:46.483Z,3.53
2022-11-13T19:09:16.329Z,2.90
2022-11-13T19:11:43.929Z,3.42
2022-11-13T19:14:14.323Z,3.75
2022-11-13T19:16:42.324Z,3.05
2022-11-13T19:19:21.508Z,3.15
2022-11-13T19:21:48.156Z,3.88
2022-11-13T19:24:15.166Z,3.92
2022-11-13T19:26:43.479Z,4.35
2022-11-13T19:29:10.601Z,3.97
2022-11-13T19:31:37.041Z,4.65
2022-11-13T19:34:07.538Z,4.28
2022-11-13T19:36:34.693Z,4.38
2022-11-13T19:39:01.347Z,3.80
2022-11-13T19:41:29.138Z,3.92
2022-11-13T19:43:58.190Z,3.60
2022-11-13T19:46:24.495Z,3.92
2022-11-13T19:48:52.110Z,3.30
2022-11-13T19:51:20.630Z,3.80
2022-11-13T19:53:47.443Z,3.92
2022-11-13T19:56:15.845Z,3.28
2022-11-13T19:58:44.230Z,4.28
2022-11-13T20:01:12.958Z,4.68
2022-11-13T20:03:39.967Z,4.85
2022-11-13T20:06:07.956Z,6.05
2022-11-13T20:08:35.410Z,5.20
2022-11-13T20:11:07.606Z,5.47
2022-11-13T20:13:36.503Z,4.93
2022-11-13T20:16:07.570Z,4.93
2022-11-13T20:18:34.197Z,4.80
2022-11-13T20:21:00.962Z,6.10
2022-11-13T20:23:28.082Z,5.78
2022-11-13T20:25:56.519Z,6.07
2022-11-13T20:28:24.153Z,6.30
2022-11-13T20:30:52.431Z,6.13
2022-11-13T20:33:22.599Z,6.28
2022-11-13T20:35:55.698Z,6.25
2022-11-13T20:38:22.194Z,5.68
2022-11-13T20:40:48.809Z,6.43
2022-11-13T20:43:17.062Z,6.15
2022-11-13T20:45:43.665Z,6.40
2022-11-13T20:48:10.315Z,6.13
2022-11-13T20:50:37.384Z,5.35
2022-11-13T20:53:05.143Z,5.70
2022-11-13T20:55:31.815Z,6.10
2022-11-13T20:57:58.212Z,6.50
2022-11-13T21:00:24.700Z,5.72
2022-11-13T21:02:52.571Z,8.15
2022-11-13T21:05:18.925Z,6.25
2022-11-13T21:07:45.580Z,5.45
2022-11-13T21:10:11.899Z,5.30
2022-11-13T21:12:38.225Z,5.60
2022-11-13T21:15:04.980Z,6.20
2022-11-13T21:17:31.323Z,6.10
2022-11-13T21:19:57.979Z,6.00
2022-11-13T21:22:24.542Z,5.90
2022-11-13T21:24:50.991Z,5.53
2022-11-13T21:27:17.459Z,6.10
2022-11-13T21:29:43.966Z,6.57
2022-11-13T21:32:10.482Z,6.38
2022-11-13T21:34:37.794Z,5.70
2022-11-13T21:37:04.491Z,6.32
2022-11-13T21:39:31.132Z,6.07
2022-11-13T21:41:57.864Z,6.28
2022-11-13T21:44:24.362Z,6.55
2022-11-13T21:46:50.850Z,5.47
2022-11-13T21:49:17.165Z,5.55
2022-11-13T21:51:43.764Z,5.32
2022-11-13T21:54:10.238Z,6.25
2022-11-13T21:56:38.259Z,6.90
2022-11-13T21:59:05.707Z,6.30
2022-11-13T22:01:37.751Z,6.10
2022-11-13T22:04:04.792Z,6.82
2022-11-13T22:06:33.018Z,7.00
2022-11-13T22:09:04.529Z,6.40
2022-11-13T22:11:32.954Z,6.82
2022-11-13T22:14:00.267Z,7.88
2022-11-13T22:16:31.899Z,7.57
2022-11-13T22:19:00.146Z,7.72
2022-11-13T22:21:29.078Z,7.45
2022-11-13T22:23:56.717Z,7.40
2022-11-13T22:26:24.813Z,7.63
2022-11-13T22:28:53.338Z,8.27
2022-11-13T22:33:51.402Z,7.80
2022-11-13T22:36:25.910Z,7.43
2022-11-13T22:38:52.843Z,8.30
2022-11-13T22:41:24.729Z,9.00
2022-11-13T22:43:53.594Z,8.48
2022-11-13T22:46:22.499Z,8.65
2022-11-13T22:48:50.514Z,8.55
2022-11-13T22:51:19.675Z,8.05
2022-11-13T22:53:56.501Z,8.77
2022-11-13T22:56:24.862Z,8.77
2022-11-13T22:58:53.988Z,8.82
2022-11-13T23:01:23.066Z,8.93
2022-11-13T23:03:51.145Z,9.05
2022-11-13T23:06:23.634Z,9.20
2022-11-13T23:08:50.573Z,8.98
2022-11-13T23:11:18.866Z,8.30
2022-11-13T23:13:48.801Z,8.88
2022-11-13T23:16:16.041Z,9.25
2022-11-13T23:18:42.808Z,8.50
2022-11-13T23:21:10.862Z,9.27
2022-11-13T23:23:37.688Z,9.88
2022-11-13T23:26:06.676Z,8.82
2022-11-13T23:28:33.331Z,10.60
2022-11-13T23:31:01.986Z,11.55
2022-11-13T23:35:55.118Z,13.48
2022-11-13T23:38:24.233Z,13.93
2022-11-13T23:40:58.454Z,15.25
2022-11-13T23:43:41.674Z,14.52
2022-11-13T23:46:12.175Z,15.32
2022-11-13T23:48:40.158Z,13.85
2022-11-13T23:51:07.241Z,16.13
2022-11-13T23:53:33.700Z,14.65
2022-11-13T23:56:00.295Z,15.35
2022-11-13T23:58:27.165Z,14.82
